sensor_id;sensor_type;location;lat;lon;timestamp;P1;durP1;ratioP1;P2;durP2;ratioP2
65896;SDS011;52677;50.898;10.854;2022-08-01T00:00:42;13.93;;;5.55;;
65896;SDS011;52677;50.898;10.854;2022-08-01T00:02:42;7.40;;;5.63;;
65896;SDS011;52677;50.898;10.854;2022-08-01T00:04:43;6.78;;;5.10;;
65896;SDS011;52677;50.898;10.854;2022-08-01T00:06:43;7.45;;;4.70;;
65896;SDS011;52677;50.898;10.854;2022-08-01T00:08:44;4.72;;;4.32;;
65896;SDS011;52677;50.898;10.854;2022-08-01T00:10:44;5.22;;;4.30;;
65896;SDS011;52677;50.898;10.854;2022-08-01T00:12:45;5.20;;;4.18;;
65896;SDS011;52677;50.898;10.854;2022-08-01T00:14:46;5.65;;;3.88;;
65896;SDS011;52677;50.898;10.854;2022-08-01T00:16:46;4.90;;;4.40;;
65896;SDS011;52677;50.898;10.854;2022-08-01T00:18:47;4.35;;;3.95;;
65896;SDS011;52677;50.898;10.854;2022-08-01T00:20:47;6.63;;;4.07;;
65896;SDS011;52677;50.898;10.854;2022-08-01T00:22:48;4.70;;;3.60;;
65896;SDS011;52677;50.898;10.854;2022-08-01T00:24:48;4.43;;;3.80;;
65896;SDS011;52677;50.898;10.854;2022-08-01T00:26:49;4.80;;;3.80;;
65896;SDS011;52677;50.898;10.854;2022-08-01T00:28:49;4.00;;;3.60;;
65896;SDS011;52677;50.898;10.854;2022-08-01T00:30:50;5.15;;;3.80;;
65896;SDS011;52677;50.898;10.854;2022-08-01T00:32:50;6.22;;;3.40;;
65896;SDS011;52677;50.898;10.854;2022-08-01T00:34:50;4.15;;;3.67;;
65896;SDS011;52677;50.898;10.854;2022-08-01T00:36:51;3.72;;;3.42;;
65896;SDS011;52677;50.898;10.854;2022-08-01T00:38:51;5.30;;;4.03;;
65896;SDS011;52677;50.898;10.854;2022-08-01T00:40:52;5.93;;;4.40;;
65896;SDS011;52677;50.898;10.854;2022-08-01T00:42:52;4.00;;;3.60;;
65896;SDS011;52677;50.898;10.854;2022-08-01T00:44:53;4.55;;;3.53;;
65896;SDS011;52677;50.898;10.854;2022-08-01T00:46:53;6.63;;;3.47;;
65896;SDS011;52677;50.898;10.854;2022-08-01T00:48:53;4.10;;;3.50;;
65896;SDS011;52677;50.898;10.854;2022-08-01T00:50:54;3.95;;;3.55;;
65896;SDS011;52677;50.898;10.854;2022-08-01T00:52:55;5.60;;;3.60;;
65896;SDS011;52677;50.898;10.854;2022-08-01T00:54:57;5.00;;;3.53;;
65896;SDS011;52677;50.898;10.854;2022-08-01T00:56:58;4.10;;;3.70;;
65896;SDS011;52677;50.898;10.854;2022-08-01T00:58:58;5.13;;;3.72;;
65896;SDS011;52677;50.898;10.854;2022-08-01T01:00:59;4.15;;;3.40;;
65896;SDS011;52677;50.898;10.854;2022-08-01T01:03:00;5.72;;;3.55;;
65896;SDS011;52677;50.898;10.854;2022-08-01T01:05:00;5.35;;;3.53;;
65896;SDS011;52677;50.898;10.854;2022-08-01T01:10:07;3.40;;;3.00;;
65896;SDS011;52677;50.898;10.854;2022-08-01T01:16:48;3.10;;;2.78;;
65896;SDS011;52677;50.898;10.854;2022-08-01T01:18:51;3.78;;;2.65;;
65896;SDS011;52677;50.898;10.854;2022-08-01T01:21:00;3.05;;;2.70;;
65896;SDS011;52677;50.898;10.854;2022-08-01T01:30:14;3.03;;;1.95;;
65896;SDS011;52677;50.898;10.854;2022-08-01T01:32:20;3.53;;;2.30;;
65896;SDS011;52677;50.898;10.854;2022-08-01T01:34:26;2.85;;;1.98;;
65896;SDS011;52677;50.898;10.854;2022-08-01T01:36:28;7.10;;;2.20;;
65896;SDS011;52677;50.898;10.854;2022-08-01T01:38:34;2.30;;;2.10;;
65896;SDS011;52677;50.898;10.854;2022-08-01T01:40:41;2.50;;;2.08;;
65896;SDS011;52677;50.898;10.854;2022-08-01T01:42:45;2.55;;;2.08;;
65896;SDS011;52677;50.898;10.854;2022-08-01T01:44:47;3.30;;;1.90;;
65896;SDS011;52677;50.898;10.854;2022-08-01T01:46:49;2.10;;;1.90;;
65896;SDS011;52677;50.898;10.854;2022-08-01T01:48:51;2.83;;;2.38;;
65896;SDS011;52677;50.898;10.854;2022-08-01T01:50:53;3.03;;;2.10;;
65896;SDS011;52677;50.898;10.854;2022-08-01T01:52:56;2.25;;;2.00;;
65896;SDS011;52677;50.898;10.854;2022-08-01T01:54:59;2.45;;;2.08;;
65896;SDS011;52677;50.898;10.854;2022-08-01T01:57:02;2.67;;;2.30;;
65896;SDS011;52677;50.898;10.854;2022-08-01T02:01:05;3.10;;;2.42;;
65896;SDS011;52677;50.898;10.854;2022-08-01T02:03:07;3.38;;;2.50;;
65896;SDS011;52677;50.898;10.854;2022-08-01T02:05:11;2.88;;;2.50;;
65896;SDS011;52677;50.898;10.854;2022-08-01T02:09:16;2.40;;;2.20;;
65896;SDS011;52677;50.898;10.854;2022-08-01T02:11:19;2.33;;;2.08;;
65896;SDS011;52677;50.898;10.854;2022-08-01T02:13:23;3.83;;;2.35;;
65896;SDS011;52677;50.898;10.854;2022-08-01T02:15:26;2.90;;;2.22;;
65896;SDS011;52677;50.898;10.854;2022-08-01T02:17:28;2.63;;;2.28;;
65896;SDS011;52677;50.898;10.854;2022-08-01T02:19:29;2.45;;;2.20;;
65896;SDS011;52677;50.898;10.854;2022-08-01T02:21:40;2.88;;;2.42;;
65896;SDS011;52677;50.898;10.854;2022-08-01T02:24:36;3.10;;;2.35;;
65896;SDS011;52677;50.898;10.854;2022-08-01T02:26:36;2.80;;;2.60;;
65896;SDS011;52677;50.898;10.854;2022-08-01T02:28:43;3.95;;;2.40;;
65896;SDS011;52677;50.898;10.854;2022-08-01T02:30:47;2.58;;;2.38;;
65896;SDS011;52677;50.898;10.854;2022-08-01T02:32:51;3.28;;;2.38;;
65896;SDS011;52677;50.898;10.854;2022-08-01T02:34:59;3.40;;;2.65;;
65896;SDS011;52677;50.898;10.854;2022-08-01T02:37:01;3.22;;;2.92;;
65896;SDS011;52677;50.898;10.854;2022-08-01T02:39:06;3.15;;;2.60;;
65896;SDS011;52677;50.898;10.854;2022-08-01T02:41:09;3.20;;;2.90;;
65896;SDS011;52677;50.898;10.854;2022-08-01T02:43:13;5.10;;;3.20;;
65896;SDS011;52677;50.898;10.854;2022-08-01T02:45:18;3.03;;;2.72;;
65896;SDS011;52677;50.898;10.854;2022-08-01T02:47:22;3.75;;;3.10;;
65896;SDS011;52677;50.898;10.854;2022-08-01T02:49:25;4.35;;;2.97;;
65896;SDS011;52677;50.898;10.854;2022-08-01T02:51:27;5.35;;;3.70;;
65896;SDS011;52677;50.898;10.854;2022-08-01T02:53:31;5.55;;;3.28;;
65896;SDS011;52677;50.898;10.854;2022-08-01T02:55:37;4.25;;;3.63;;
65896;SDS011;52677;50.898;10.854;2022-08-01T02:57:39;4.47;;;3.88;;
65896;SDS011;52677;50.898;10.854;2022-08-01T02:59:42;5.05;;;4.03;;
65896;SDS011;52677;50.898;10.854;2022-08-01T03:01:44;4.07;;;3.63;;
65896;SDS011;52677;50.898;10.854;2022-08-01T03:03:46;5.45;;;3.72;;
65896;SDS011;52677;50.898;10.854;2022-08-01T03:05:47;5.55;;;3.97;;
65896;SDS011;52677;50.898;10.854;2022-08-01T03:07:48;4.32;;;3.78;;
65896;SDS011;52677;50.898;10.854;2022-08-01T03:09:51;4.78;;;3.65;;
65896;SDS011;52677;50.898;10.854;2022-08-01T03:11:52;5.25;;;3.60;;
65896;SDS011;52677;50.898;10.854;2022-08-01T03:13:56;6.35;;;4.05;;
65896;SDS011;52677;50.898;10.854;2022-08-01T03:15:58;3.95;;;3.40;;
65896;SDS011;52677;50.898;10.854;2022-08-01T03:18:01;4.20;;;3.80;;
65896;SDS011;52677;50.898;10.854;2022-08-01T03:20:03;4.13;;;3.50;;
65896;SDS011;52677;50.898;10.854;2022-08-01T03:22:08;6.30;;;3.95;;
65896;SDS011;52677;50.898;10.854;2022-08-01T03:24:12;5.15;;;3.78;;
65896;SDS011;52677;50.898;10.854;2022-08-01T03:26:14;4.70;;;3.88;;
65896;SDS011;52677;50.898;10.854;2022-08-01T03:28:15;4.60;;;3.65;;
65896;SDS011;52677;50.898;10.854;2022-08-01T03:30:17;3.97;;;3.58;;
65896;SDS011;52677;50.898;10.854;2022-08-01T03:32:17;4.40;;;3.80;;
65896;SDS011;52677;50.898;10.854;2022-08-01T03:34:19;3.67;;;3.33;;
65896;SDS011;52677;50.898;10.854;2022-08-01T03:36:23;3.42;;;2.92;;
65896;SDS011;52677;50.898;10.854;2022-08-01T03:38:26;4.13;;;3.47;;
65896;SDS011;52677;50.898;10.854;2022-08-01T03:42:37;3.65;;;3.33;;
65896;SDS011;52677;50.898;10.854;2022-08-01T03:44:41;3.78;;;2.97;;
65896;SDS011;52677;50.898;10.854;2022-08-01T03:47:08;3.50;;;3.20;;
65896;SDS011;52677;50.898;10.854;2022-08-01T03:49:11;4.07;;;3.30;;
65896;SDS011;52677;50.898;10.854;2022-08-01T03:51:17;4.13;;;3.30;;
65896;SDS011;52677;50.898;10.854;2022-08-01T03:53:22;4.38;;;3.30;;
65896;SDS011;52677;50.898;10.854;2022-08-01T03:55:24;4.50;;;3.13;;
65896;SDS011;52677;50.898;10.854;2022-08-01T03:57:26;4.18;;;2.70;;
65896;SDS011;52677;50.898;10.854;2022-08-01T03:59:29;3.40;;;3.03;;
65896;SDS011;52677;50.898;10.854;2022-08-01T04:01:31;3.92;;;3.30;;
65896;SDS011;52677;50.898;10.854;2022-08-01T04:03:33;3.30;;;3.00;;
65896;SDS011;52677;50.898;10.854;2022-08-01T04:05:34;3.30;;;2.78;;
65896;SDS011;52677;50.898;10.854;2022-08-01T04:07:35;3.50;;;2.90;;
65896;SDS011;52677;50.898;10.854;2022-08-01T04:09:36;5.03;;;3.10;;
65896;SDS011;52677;50.898;10.854;2022-08-01T04:11:36;4.82;;;3.00;;
65896;SDS011;52677;50.898;10.854;2022-08-01T04:13:36;4.78;;;3.28;;
65896;SDS011;52677;50.898;10.854;2022-08-01T04:15:37;3.63;;;2.88;;
65896;SDS011;52677;50.898;10.854;2022-08-01T04:17:37;3.78;;;3.28;;
65896;SDS011;52677;50.898;10.854;2022-08-01T04:19:38;3.00;;;2.70;;
65896;SDS011;52677;50.898;10.854;2022-08-01T04:21:39;4.82;;;2.70;;
65896;SDS011;52677;50.898;10.854;2022-08-01T04:23:40;3.35;;;2.70;;
65896;SDS011;52677;50.898;10.854;2022-08-01T04:25:43;3.47;;;3.00;;
65896;SDS011;52677;50.898;10.854;2022-08-01T04:29:48;3.07;;;2.60;;
65896;SDS011;52677;50.898;10.854;2022-08-01T04:31:51;3.50;;;2.50;;
65896;SDS011;52677;50.898;10.854;2022-08-01T04:33:54;3.60;;;2.90;;
65896;SDS011;52677;50.898;10.854;2022-08-01T04:35:56;3.75;;;3.10;;
65896;SDS011;52677;50.898;10.854;2022-08-01T04:37:59;3.50;;;3.20;;
65896;SDS011;52677;50.898;10.854;2022-08-01T04:40:01;4.15;;;2.80;;
65896;SDS011;52677;50.898;10.854;2022-08-01T04:42:02;3.72;;;2.67;;
65896;SDS011;52677;50.898;10.854;2022-08-01T04:44:04;3.90;;;2.70;;
65896;SDS011;52677;50.898;10.854;2022-08-01T04:46:06;3.47;;;3.00;;
65896;SDS011;52677;50.898;10.854;2022-08-01T04:48:07;3.00;;;2.60;;
65896;SDS011;52677;50.898;10.854;2022-08-01T04:50:09;2.58;;;2.35;;
65896;SDS011;52677;50.898;10.854;2022-08-01T04:52:11;3.58;;;3.13;;
65896;SDS011;52677;50.898;10.854;2022-08-01T04:54:11;6.15;;;2.88;;
65896;SDS011;52677;50.898;10.854;2022-08-01T04:56:12;3.42;;;2.45;;
65896;SDS011;52677;50.898;10.854;2022-08-01T04:58:13;4.15;;;2.78;;
65896;SDS011;52677;50.898;10.854;2022-08-01T05:00:15;4.03;;;2.80;;
65896;SDS011;52677;50.898;10.854;2022-08-01T05:02:18;3.95;;;2.75;;
65896;SDS011;52677;50.898;10.854;2022-08-01T05:04:19;4.45;;;2.70;;
65896;SDS011;52677;50.898;10.854;2022-08-01T05:06:19;2.63;;;2.42;;
65896;SDS011;52677;50.898;10.854;2022-08-01T05:08:19;5.13;;;2.95;;
65896;SDS011;52677;50.898;10.854;2022-08-01T05:10:20;2.65;;;2.20;;
65896;SDS011;52677;50.898;10.854;2022-08-01T05:12:20;4.57;;;2.75;;
65896;SDS011;52677;50.898;10.854;2022-08-01T05:14:20;6.57;;;2.55;;
65896;SDS011;52677;50.898;10.854;2022-08-01T05:16:21;6.07;;;2.60;;
65896;SDS011;52677;50.898;10.854;2022-08-01T05:18:21;3.60;;;2.70;;
65896;SDS011;52677;50.898;10.854;2022-08-01T05:20:21;3.08;;;2.75;;
65896;SDS011;52677;50.898;10.854;2022-08-01T05:22:22;3.25;;;2.88;;
65896;SDS011;52677;50.898;10.854;2022-08-01T05:24:22;3.47;;;2.30;;
65896;SDS011;52677;50.898;10.854;2022-08-01T05:26:22;2.72;;;2.50;;
65896;SDS011;52677;50.898;10.854;2022-08-01T05:28:23;3.50;;;2.50;;
65896;SDS011;52677;50.898;10.854;2022-08-01T05:30:23;2.70;;;2.13;;
65896;SDS011;52677;50.898;10.854;2022-08-01T05:32:23;2.67;;;2.30;;
65896;SDS011;52677;50.898;10.854;2022-08-01T05:34:23;7.70;;;3.00;;
65896;SDS011;52677;50.898;10.854;2022-08-01T05:36:24;7.00;;;2.60;;
65896;SDS011;52677;50.898;10.854;2022-08-01T05:38:25;2.90;;;2.60;;
65896;SDS011;52677;50.898;10.854;2022-08-01T05:40:25;3.33;;;2.58;;
65896;SDS011;52677;50.898;10.854;2022-08-01T05:42:25;3.47;;;2.80;;
65896;SDS011;52677;50.898;10.854;2022-08-01T05:44:26;3.08;;;2.40;;
65896;SDS011;52677;50.898;10.854;2022-08-01T05:46:26;4.50;;;2.90;;
65896;SDS011;52677;50.898;10.854;2022-08-01T05:48:27;3.20;;;2.50;;
65896;SDS011;52677;50.898;10.854;2022-08-01T05:50:27;3.42;;;2.90;;
65896;SDS011;52677;50.898;10.854;2022-08-01T05:52:27;3.53;;;2.55;;
65896;SDS011;52677;50.898;10.854;2022-08-01T05:54:28;4.10;;;2.70;;
65896;SDS011;52677;50.898;10.854;2022-08-01T05:56:29;3.58;;;2.83;;
65896;SDS011;52677;50.898;10.854;2022-08-01T05:58:29;2.63;;;2.42;;
65896;SDS011;52677;50.898;10.854;2022-08-01T06:00:29;3.20;;;2.90;;
65896;SDS011;52677;50.898;10.854;2022-08-01T06:02:30;3.40;;;2.85;;
65896;SDS011;52677;50.898;10.854;2022-08-01T06:04:30;3.25;;;2.30;;
65896;SDS011;52677;50.898;10.854;2022-08-01T06:06:30;2.78;;;2.50;;
65896;SDS011;52677;50.898;10.854;2022-08-01T06:08:31;2.97;;;2.65;;
65896;SDS011;52677;50.898;10.854;2022-08-01T06:10:32;3.75;;;2.90;;
65896;SDS011;52677;50.898;10.854;2022-08-01T06:12:32;3.35;;;2.47;;
65896;SDS011;52677;50.898;10.854;2022-08-01T06:14:33;3.47;;;3.00;;
65896;SDS011;52677;50.898;10.854;2022-08-01T06:16:33;4.00;;;2.92;;
65896;SDS011;52677;50.898;10.854;2022-08-01T06:18:34;3.60;;;3.05;;
65896;SDS011;52677;50.898;10.854;2022-08-01T06:20:34;3.90;;;3.05;;
65896;SDS011;52677;50.898;10.854;2022-08-01T06:22:34;4.15;;;2.90;;
65896;SDS011;52677;50.898;10.854;2022-08-01T06:24:35;3.25;;;2.92;;
65896;SDS011;52677;50.898;10.854;2022-08-01T06:26:35;3.63;;;3.22;;
65896;SDS011;52677;50.898;10.854;2022-08-01T06:28:37;4.25;;;3.30;;
65896;SDS011;52677;50.898;10.854;2022-08-01T06:30:38;3.47;;;2.80;;
65896;SDS011;52677;50.898;10.854;2022-08-01T06:32:38;3.97;;;3.20;;
65896;SDS011;52677;50.898;10.854;2022-08-01T06:34:39;3.10;;;2.80;;
65896;SDS011;52677;50.898;10.854;2022-08-01T06:36:39;3.75;;;3.33;;
65896;SDS011;52677;50.898;10.854;2022-08-01T06:38:39;3.85;;;2.97;;
65896;SDS011;52677;50.898;10.854;2022-08-01T06:40:39;5.72;;;3.33;;
65896;SDS011;52677;50.898;10.854;2022-08-01T06:42:40;4.40;;;2.80;;
65896;SDS011;52677;50.898;10.854;2022-08-01T06:44:40;4.03;;;3.03;;
65896;SDS011;52677;50.898;10.854;2022-08-01T06:46:41;9.57;;;3.33;;
65896;SDS011;52677;50.898;10.854;2022-08-01T06:48:41;3.35;;;3.05;;
65896;SDS011;52677;50.898;10.854;2022-08-01T06:50:42;4.70;;;3.33;;
65896;SDS011;52677;50.898;10.854;2022-08-01T06:52:43;5.65;;;3.30;;
65896;SDS011;52677;50.898;10.854;2022-08-01T06:54:43;4.35;;;3.42;;
65896;SDS011;52677;50.898;10.854;2022-08-01T06:56:43;4.28;;;3.20;;
65896;SDS011;52677;50.898;10.854;2022-08-01T06:58:44;4.88;;;3.10;;
65896;SDS011;52677;50.898;10.854;2022-08-01T07:00:44;4.30;;;3.90;;
65896;SDS011;52677;50.898;10.854;2022-08-01T07:02:44;3.95;;;3.30;;
65896;SDS011;52677;50.898;10.854;2022-08-01T07:04:45;4.80;;;2.97;;
65896;SDS011;52677;50.898;10.854;2022-08-01T07:06:45;4.53;;;3.38;;
65896;SDS011;52677;50.898;10.854;2022-08-01T07:08:46;4.18;;;3.22;;
65896;SDS011;52677;50.898;10.854;2022-08-01T07:10:46;3.65;;;3.20;;
65896;SDS011;52677;50.898;10.854;2022-08-01T07:12:46;7.80;;;3.55;;
65896;SDS011;52677;50.898;10.854;2022-08-01T07:14:47;4.70;;;3.30;;
65896;SDS011;52677;50.898;10.854;2022-08-01T07:16:47;4.18;;;3.60;;
65896;SDS011;52677;50.898;10.854;2022-08-01T07:18:48;4.40;;;3.30;;
65896;SDS011;52677;50.898;10.854;2022-08-01T07:20:49;3.47;;;3.05;;
65896;SDS011;52677;50.898;10.854;2022-08-01T07:22:49;3.47;;;3.17;;
65896;SDS011;52677;50.898;10.854;2022-08-01T07:24:50;4.25;;;3.30;;
65896;SDS011;52677;50.898;10.854;2022-08-01T07:26:50;3.75;;;3.35;;
65896;SDS011;52677;50.898;10.854;2022-08-01T07:28:50;3.60;;;3.20;;
65896;SDS011;52677;50.898;10.854;2022-08-01T07:30:50;4.90;;;3.20;;
65896;SDS011;52677;50.898;10.854;2022-08-01T07:32:51;3.92;;;2.90;;
65896;SDS011;52677;50.898;10.854;2022-08-01T07:34:51;5.30;;;2.58;;
65896;SDS011;52677;50.898;10.854;2022-08-01T07:36:52;3.03;;;2.65;;
65896;SDS011;52677;50.898;10.854;2022-08-01T07:38:52;2.47;;;2.20;;
65896;SDS011;52677;50.898;10.854;2022-08-01T07:40:53;2.60;;;2.10;;
65896;SDS011;52677;50.898;10.854;2022-08-01T07:42:54;2.22;;;2.00;;
65896;SDS011;52677;50.898;10.854;2022-08-01T07:44:55;2.30;;;1.70;;
65896;SDS011;52677;50.898;10.854;2022-08-01T07:46:55;1.60;;;1.50;;
65896;SDS011;52677;50.898;10.854;2022-08-01T07:48:56;4.65;;;1.77;;
65896;SDS011;52677;50.898;10.854;2022-08-01T07:50:56;4.18;;;1.73;;
65896;SDS011;52677;50.898;10.854;2022-08-01T07:52:57;2.60;;;1.90;;
65896;SDS011;52677;50.898;10.854;2022-08-01T07:54:57;2.10;;;1.63;;
65896;SDS011;52677;50.898;10.854;2022-08-01T07:56:58;2.95;;;1.90;;
65896;SDS011;52677;50.898;10.854;2022-08-01T07:58:58;1.80;;;1.65;;
65896;SDS011;52677;50.898;10.854;2022-08-01T08:00:59;2.67;;;1.70;;
65896;SDS011;52677;50.898;10.854;2022-08-01T08:02:59;2.28;;;1.90;;
65896;SDS011;52677;50.898;10.854;2022-08-01T08:04:59;2.72;;;1.58;;
65896;SDS011;52677;50.898;10.854;2022-08-01T08:07:00;3.03;;;1.75;;
65896;SDS011;52677;50.898;10.854;2022-08-01T08:09:00;3.20;;;1.80;;
65896;SDS011;52677;50.898;10.854;2022-08-01T08:11:00;2.63;;;1.88;;
65896;SDS011;52677;50.898;10.854;2022-08-01T08:13:01;5.00;;;1.80;;
65896;SDS011;52677;50.898;10.854;2022-08-01T08:15:02;1.83;;;1.65;;
65896;SDS011;52677;50.898;10.854;2022-08-01T08:17:05;2.55;;;1.80;;
65896;SDS011;52677;50.898;10.854;2022-08-01T08:19:06;1.70;;;1.60;;
65896;SDS011;52677;50.898;10.854;2022-08-01T08:21:06;3.15;;;1.85;;
65896;SDS011;52677;50.898;10.854;2022-08-01T08:23:06;1.90;;;1.63;;
65896;SDS011;52677;50.898;10.854;2022-08-01T08:25:27;2.05;;;1.60;;
65896;SDS011;52677;50.898;10.854;2022-08-01T08:27:28;0.98;;;0.95;;
65896;SDS011;52677;50.898;10.854;2022-08-01T08:29:30;1.20;;;1.00;;
65896;SDS011;52677;50.898;10.854;2022-08-01T08:31:34;1.25;;;1.15;;
65896;SDS011;52677;50.898;10.854;2022-08-01T08:33:34;4.65;;;1.58;;
65896;SDS011;52677;50.898;10.854;2022-08-01T08:35:35;1.73;;;1.10;;
65896;SDS011;52677;50.898;10.854;2022-08-01T08:37:35;1.77;;;1.33;;
65896;SDS011;52677;50.898;10.854;2022-08-01T08:39:37;2.72;;;1.77;;
65896;SDS011;52677;50.898;10.854;2022-08-01T08:41:37;1.98;;;1.10;;
65896;SDS011;52677;50.898;10.854;2022-08-01T08:43:38;1.67;;;1.30;;
65896;SDS011;52677;50.898;10.854;2022-08-01T08:45:38;3.83;;;1.35;;
65896;SDS011;52677;50.898;10.854;2022-08-01T08:47:39;1.67;;;1.23;;
65896;SDS011;52677;50.898;10.854;2022-08-01T08:51:43;2.22;;;1.13;;
65896;SDS011;52677;50.898;10.854;2022-08-01T08:53:47;2.55;;;1.30;;
65896;SDS011;52677;50.898;10.854;2022-08-01T08:55:48;1.42;;;1.30;;
65896;SDS011;52677;50.898;10.854;2022-08-01T08:57:49;3.08;;;1.60;;
65896;SDS011;52677;50.898;10.854;2022-08-01T08:59:50;1.27;;;1.08;;
65896;SDS011;52677;50.898;10.854;2022-08-01T09:01:52;2.70;;;1.33;;
65896;SDS011;52677;50.898;10.854;2022-08-01T09:03:53;1.30;;;1.20;;
65896;SDS011;52677;50.898;10.854;2022-08-01T09:05:53;1.50;;;1.40;;
65896;SDS011;52677;50.898;10.854;2022-08-01T09:07:53;2.55;;;1.30;;
65896;SDS011;52677;50.898;10.854;2022-08-01T09:09:54;1.48;;;1.05;;
65896;SDS011;52677;50.898;10.854;2022-08-01T09:11:54;4.20;;;1.27;;
65896;SDS011;52677;50.898;10.854;2022-08-01T09:16:23;2.00;;;1.27;;
65896;SDS011;52677;50.898;10.854;2022-08-01T09:18:34;1.48;;;1.10;;
65896;SDS011;52677;50.898;10.854;2022-08-01T09:20:34;1.80;;;1.00;;
65896;SDS011;52677;50.898;10.854;2022-08-01T09:22:35;1.73;;;1.08;;
65896;SDS011;52677;50.898;10.854;2022-08-01T09:24:38;2.28;;;1.00;;
65896;SDS011;52677;50.898;10.854;2022-08-01T09:26:40;1.88;;;1.20;;
65896;SDS011;52677;50.898;10.854;2022-08-01T09:28:41;1.77;;;0.90;;
65896;SDS011;52677;50.898;10.854;2022-08-01T09:30:42;1.08;;;0.90;;
65896;SDS011;52677;50.898;10.854;2022-08-01T09:32:59;2.22;;;0.80;;
65896;SDS011;52677;50.898;10.854;2022-08-01T09:37:29;1.15;;;1.00;;
65896;SDS011;52677;50.898;10.854;2022-08-01T09:39:31;1.92;;;1.00;;
65896;SDS011;52677;50.898;10.854;2022-08-01T09:41:33;1.02;;;0.90;;
65896;SDS011;52677;50.898;10.854;2022-08-01T09:43:34;1.27;;;1.00;;
65896;SDS011;52677;50.898;10.854;2022-08-01T09:45:34;1.40;;;1.10;;
65896;SDS011;52677;50.898;10.854;2022-08-01T09:47:38;1.08;;;0.90;;
65896;SDS011;52677;50.898;10.854;2022-08-01T09:49:40;1.48;;;1.10;;
65896;SDS011;52677;50.898;10.854;2022-08-01T09:51:41;0.90;;;0.90;;
65896;SDS011;52677;50.898;10.854;2022-08-01T09:53:41;1.75;;;0.93;;
65896;SDS011;52677;50.898;10.854;2022-08-01T09:55:48;1.58;;;1.10;;
65896;SDS011;52677;50.898;10.854;2022-08-01T09:57:55;1.13;;;1.00;;
65896;SDS011;52677;50.898;10.854;2022-08-01T09:59:59;3.25;;;0.90;;
65896;SDS011;52677;50.898;10.854;2022-08-01T10:02:01;1.73;;;0.90;;
65896;SDS011;52677;50.898;10.854;2022-08-01T10:04:05;3.42;;;1.02;;
65896;SDS011;52677;50.898;10.854;2022-08-01T10:06:21;2.15;;;1.00;;
65896;SDS011;52677;50.898;10.854;2022-08-01T10:08:21;4.97;;;1.00;;
65896;SDS011;52677;50.898;10.854;2022-08-01T10:10:25;2.10;;;1.27;;
65896;SDS011;52677;50.898;10.854;2022-08-01T10:12:25;2.75;;;1.20;;
65896;SDS011;52677;50.898;10.854;2022-08-01T10:14:26;1.40;;;1.10;;
65896;SDS011;52677;50.898;10.854;2022-08-01T10:16:27;1.90;;;1.02;;
65896;SDS011;52677;50.898;10.854;2022-08-01T10:18:29;1.20;;;1.10;;
65896;SDS011;52677;50.898;10.854;2022-08-01T10:20:32;1.13;;;1.00;;
65896;SDS011;52677;50.898;10.854;2022-08-01T10:22:33;1.30;;;1.20;;
65896;SDS011;52677;50.898;10.854;2022-08-01T10:24:36;1.50;;;1.17;;
65896;SDS011;52677;50.898;10.854;2022-08-01T10:26:38;4.13;;;1.02;;
65896;SDS011;52677;50.898;10.854;2022-08-01T10:28:40;2.50;;;1.20;;
65896;SDS011;52677;50.898;10.854;2022-08-01T10:30:41;1.10;;;0.90;;
65896;SDS011;52677;50.898;10.854;2022-08-01T10:32:43;1.58;;;1.08;;
65896;SDS011;52677;50.898;10.854;2022-08-01T10:34:46;1.40;;;1.10;;
65896;SDS011;52677;50.898;10.854;2022-08-01T10:36:47;1.63;;;1.20;;
65896;SDS011;52677;50.898;10.854;2022-08-01T10:38:49;2.15;;;1.40;;
65896;SDS011;52677;50.898;10.854;2022-08-01T10:40:50;5.22;;;1.25;;
65896;SDS011;52677;50.898;10.854;2022-08-01T10:42:53;4.10;;;1.40;;
65896;SDS011;52677;50.898;10.854;2022-08-01T10:44:54;4.05;;;1.25;;
65896;SDS011;52677;50.898;10.854;2022-08-01T10:47:02;2.03;;;1.15;;
65896;SDS011;52677;50.898;10.854;2022-08-01T10:49:11;2.50;;;1.60;;
65896;SDS011;52677;50.898;10.854;2022-08-01T10:51:15;1.75;;;1.30;;
65896;SDS011;52677;50.898;10.854;2022-08-01T10:53:17;1.50;;;1.40;;
65896;SDS011;52677;50.898;10.854;2022-08-01T10:55:25;2.00;;;1.30;;
65896;SDS011;52677;50.898;10.854;2022-08-01T10:57:25;1.30;;;1.10;;
65896;SDS011;52677;50.898;10.854;2022-08-01T10:59:51;2.10;;;1.10;;
65896;SDS011;52677;50.898;10.854;2022-08-01T11:01:58;1.50;;;1.23;;
65896;SDS011;52677;50.898;10.854;2022-08-01T11:06:00;1.30;;;1.13;;
65896;SDS011;52677;50.898;10.854;2022-08-01T11:08:06;1.55;;;1.27;;
65896;SDS011;52677;50.898;10.854;2022-08-01T11:12:39;1.50;;;1.20;;
65896;SDS011;52677;50.898;10.854;2022-08-01T11:17:29;1.63;;;1.10;;
65896;SDS011;52677;50.898;10.854;2022-08-01T11:20:03;2.92;;;1.20;;
65896;SDS011;52677;50.898;10.854;2022-08-01T11:22:08;1.42;;;0.93;;
65896;SDS011;52677;50.898;10.854;2022-08-01T11:24:09;1.15;;;1.00;;
65896;SDS011;52677;50.898;10.854;2022-08-01T11:26:09;1.95;;;0.93;;
65896;SDS011;52677;50.898;10.854;2022-08-01T11:32:24;2.22;;;1.00;;
65896;SDS011;52677;50.898;10.854;2022-08-01T11:37:41;3.30;;;1.20;;
65896;SDS011;52677;50.898;10.854;2022-08-01T11:39:23;2.92;;;1.00;;
65896;SDS011;52677;50.898;10.854;2022-08-01T11:41:27;1.35;;;1.00;;
65896;SDS011;52677;50.898;10.854;2022-08-01T11:43:30;1.77;;;1.00;;
65896;SDS011;52677;50.898;10.854;2022-08-01T11:48:01;1.77;;;1.05;;
65896;SDS011;52677;50.898;10.854;2022-08-01T11:50:33;1.02;;;0.90;;
65896;SDS011;52677;50.898;10.854;2022-08-01T11:52:35;1.55;;;1.13;;
65896;SDS011;52677;50.898;10.854;2022-08-01T11:54:37;1.58;;;1.02;;
65896;SDS011;52677;50.898;10.854;2022-08-01T11:56:41;2.63;;;1.20;;
65896;SDS011;52677;50.898;10.854;2022-08-01T11:58:41;1.63;;;1.10;;
65896;SDS011;52677;50.898;10.854;2022-08-01T12:00:46;0.90;;;0.80;;
65896;SDS011;52677;50.898;10.854;2022-08-01T12:03:01;1.00;;;0.90;;
65896;SDS011;52677;50.898;10.854;2022-08-01T12:05:06;2.03;;;1.02;;
65896;SDS011;52677;50.898;10.854;2022-08-01T12:07:12;2.22;;;0.90;;
65896;SDS011;52677;50.898;10.854;2022-08-01T12:09:14;2.85;;;1.05;;
65896;SDS011;52677;50.898;10.854;2022-08-01T12:11:22;2.08;;;0.98;;
65896;SDS011;52677;50.898;10.854;2022-08-01T12:13:22;2.05;;;0.80;;
65896;SDS011;52677;50.898;10.854;2022-08-01T12:15:23;0.88;;;0.82;;
65896;SDS011;52677;50.898;10.854;2022-08-01T12:17:28;0.93;;;0.80;;
65896;SDS011;52677;50.898;10.854;2022-08-01T12:19:29;1.95;;;0.90;;
65896;SDS011;52677;50.898;10.854;2022-08-01T12:21:29;1.52;;;1.05;;
65896;SDS011;52677;50.898;10.854;2022-08-01T12:23:30;0.93;;;0.82;;
65896;SDS011;52677;50.898;10.854;2022-08-01T12:25:30;1.92;;;1.40;;
65896;SDS011;52677;50.898;10.854;2022-08-01T12:27:31;1.70;;;1.58;;
65896;SDS011;52677;50.898;10.854;2022-08-01T12:29:42;3.35;;;1.70;;
65896;SDS011;52677;50.898;10.854;2022-08-01T12:31:46;1.70;;;1.60;;
65896;SDS011;52677;50.898;10.854;2022-08-01T12:33:46;4.47;;;1.40;;
65896;SDS011;52677;50.898;10.854;2022-08-01T12:35:47;1.73;;;1.52;;
65896;SDS011;52677;50.898;10.854;2022-08-01T12:37:51;2.22;;;1.45;;
65896;SDS011;52677;50.898;10.854;2022-08-01T12:39:53;3.72;;;1.60;;
65896;SDS011;52677;50.898;10.854;2022-08-01T12:41:54;1.90;;;1.70;;
65896;SDS011;52677;50.898;10.854;2022-08-01T12:43:54;2.72;;;1.52;;
65896;SDS011;52677;50.898;10.854;2022-08-01T12:45:56;3.03;;;1.35;;
65896;SDS011;52677;50.898;10.854;2022-08-01T12:47:59;3.92;;;1.60;;
65896;SDS011;52677;50.898;10.854;2022-08-01T12:50:00;3.33;;;1.70;;
65896;SDS011;52677;50.898;10.854;2022-08-01T12:52:01;2.03;;;1.30;;